Photo de Laille
https://tgftp.nws.noaa.gov/data/observations/metar/stations/LFRN.TXT2019/06/25 18:30 LFRN 251830Z AUTO 34005KT 320V020 CAVOK 21/18 Q1020 TEMPO SHRA SCT100CB
Rennes
Ciel dégagé
Metar : 2019/06/25 18:30 LFRN 251830Z AUTO 34005KT 320V020 CAVOK 21/18 Q1020 TEMPO SHRA SCT100CB
Couverture nuageuse :
Pression de 30.12 inHg (1020 hPa)
Humidité : 83%
Température : 70°F (21°C)
Vent de NNW at 6 mph (9 km/h)
Visibilité : greater than 7 miles (10 km)
Nantes
Ciel dégagé
Metar : 2019/06/25 18:30 LFRS 251830Z AUTO 36006KT 320V040 CAVOK 25/19 Q1018 NOSIG
Couverture nuageuse :
Traduc : Partly cloudy 700 ft
Pression de 30.06 inHg (1018 hPa)
Humidité : 69%
Température : 77°F (25°C)
Point de rosée : 66°F (19°C)
Vent de N at 7 mph (11 km/h)
Visibilité : greater than 7 miles (10 km)
Lannion
Ciel dégagé
Metar : 2019/06/25 18:30 LFRO 251830Z AUTO 02006KT 360V060 CAVOK 18/14 Q1020
Couverture nuageuse :
Traduc : Partly cloudy 700 ft
Pression de 30.12 inHg (1020 hPa)
Humidité : 78%
Température : 64°F (18°C)
Point de rosée : 57°F (14°C)
Vent de NNE at 7 mph (11 km/h)
Visibilité : greater than 7 miles (10 km)
Dinard
Orageux
Metar : 2019/06/25 18:30 LFRD 251830Z AUTO 01004KT 9999 ///TCU 17/15 Q1020 TEMPO SHRA SCT100CB
Couverture nuageuse :
Traduc : Partly cloudy 700 ft
Pression de 30.12 inHg (1020 hPa)
Humidité : 88%
Température : 63°F (17°C)
Point de rosée : 59°F (15°C)
Vent de N at 5 mph (7 km/h)
Visibilité : 6 miles (10 km)
Brest
Ciel dégagé
Metar : 2019/06/25 18:30 LFRB 251830Z AUTO 01007KT CAVOK 19/14 Q1020 NOSIG
Couverture nuageuse :
Traduc : Partly cloudy 700 ft
Pression de 30.12 inHg (1020 hPa)
Humidité : 73%
Température : 66°F (19°C)
Point de rosée : 57°F (14°C)
Vent de N at 8 mph (13 km/h)
Visibilité : greater than 7 miles (10 km)
Quimper
nuageux
Metar : 2019/06/25 18:30 LFRQ 251830Z AUTO 32005KT 290V010 9999 FEW031 SCT180 BKN220 22/16 Q1020 NOSIG
Couverture nuageuse : Few Clouds 3100 ft Partly Cloudy 18000 ft Mostly Cloudy 22000 ft
Traduc : Partly cloudy 700 ft
Pression de 30.12 inHg (1020 hPa)
Humidité : 69%
Température : 72°F (22°C)
Point de rosée : 61°F (16°C)
Vent de NW at 6 mph (9 km/h)
Visibilité : 6 miles (10 km)
St Nazaire
Ciel dégagé
Metar : 2019/06/25 18:30 LFRZ 251830Z AUTO 01009KT CAVOK 21/17 Q1019 NOSIG
Couverture nuageuse :
Traduc : Partly cloudy 700 ft
Pression de 30.09 inHg (1019 hPa)
Humidité : 78%
Température : 70°F (21°C)
Point de rosée : 63°F (17°C)
Vent de N at 10 mph (17 km/h)
Visibilité : greater than 7 miles (10 km)
St Brieuc
Ciel dégagé
Metar : 2019/06/25 18:30 LFRT 251830Z AUTO 04004KT CAVOK 17/15 Q1020
Couverture nuageuse :
Traduc : Partly cloudy 700 ft
Pression de 30.12 inHg (1020 hPa)
Humidité : 88%
Température : 63°F (17°C)
Point de rosée : 59°F (15°C)
Vent de NE at 5 mph (7 km/h)
Visibilité : greater than 7 miles (10 km)
Lorient
couvert
Metar : 2019/06/25 18:30 LFRH 251830Z AUTO 25004KT 9999 FEW030 OVC100 20/16 Q1019 BECMG 03010KT
Couverture nuageuse : Few Clouds 3000 ft Overcast 10000 ft
Traduc : Partly cloudy 700 ft
Pression de 30.09 inHg (1019 hPa)
Humidité : 78%
Température : 68°F (20°C)
Point de rosée : 61°F (16°C)
Vent de WSW at 5 mph (7 km/h)
Visibilité : 6 miles (10 km)
Vannes-Meucon
Ciel dégagé
Metar : 2019/06/25 18:30 LFRV 251830Z AUTO 06008KT CAVOK 20/18 Q1019
Couverture nuageuse :
Traduc : Partly cloudy 700 ft
Pression de 30.09 inHg (1019 hPa)
Humidité : 88%
Température : 68°F (20°C)
Point de rosée : 64°F (18°C)
Vent de ENE at 9 mph (15 km/h)
Visibilité : greater than 7 miles (10 km)

 


   Weather Underground PWS IBRETAGN39      Weather Underground PWS IBRETAGN39Retour Météo-Laillé adhérent de Météo-Bretagne et d'Infoclimat. Données mises à jour en temps réel via Météolink Climatologie réalisée sous Wswin et GraphWeather.

Affichage prévisions météo de WeatherUnderground via script PHP de Saratoga.

Copyright 2012-2018